FIN4IR EGCC-EGPH
Flight info
| Callsign | FIN4IR |
|---|---|
| Flight time | 0h 37m |
| Altitude | 24000 |
| Route | POL1Y POL N601 INPIP INPIP1E |
| Aircraft | A321/M-SDE3FGHIRWY/LB1 |
Departure
| Time | 2026-05-07 10:53 |
|---|---|
| Airport | Manchester Airport (EGCC) |
Arrival
| Time | 2026-05-07 11:30 |
|---|---|
| Airport | Edinburgh Airport (EGPH) |
| Time | Latitude | Longitude | Altitude | Speed | Heading |
|---|---|---|---|---|---|
| 2026-05-07 10:05 | 53.36039 | -2.26885 | 261 ft | 0 kts | 326° |
| 2026-05-07 10:43 | 53.36038 | -2.26885 | 261 ft | 0 kts | 326° |
| 2026-05-07 10:44 | 53.36028 | -2.26870 | 261 ft | 2 kts | 309° |
| 2026-05-07 10:44 | 53.36019 | -2.26849 | 261 ft | 2 kts | 296° |
| 2026-05-07 10:44 | 53.36014 | -2.26826 | 261 ft | 2 kts | 281° |
| 2026-05-07 10:44 | 53.36013 | -2.26801 | 261 ft | 2 kts | 265° |
| 2026-05-07 10:45 | 53.36016 | -2.26776 | 261 ft | 2 kts | 250° |
| 2026-05-07 10:45 | 53.36022 | -2.26754 | 261 ft | 2 kts | 236° |
| 2026-05-07 10:45 | 53.36032 | -2.26735 | 261 ft | 2 kts | 227° |
| 2026-05-07 10:45 | 53.36042 | -2.26716 | 261 ft | 2 kts | 231° |
| 2026-05-07 10:46 | 53.36047 | -2.26704 | 261 ft | 0 kts | 230° |
| 2026-05-07 10:47 | 53.36046 | -2.26707 | 261 ft | 1 kts | 230° |
| 2026-05-07 10:47 | 53.36020 | -2.26743 | 261 ft | 8 kts | 200° |
| 2026-05-07 10:47 | 53.35957 | -2.26721 | 261 ft | 11 kts | 167° |
| 2026-05-07 10:48 | 53.35944 | -2.26717 | 261 ft | 0 kts | 170° |
| 2026-05-07 10:48 | 53.35943 | -2.26717 | 261 ft | 0 kts | 170° |
| 2026-05-07 10:49 | 53.35941 | -2.26716 | 261 ft | 0 kts | 170° |
| 2026-05-07 10:49 | 53.35938 | -2.26715 | 261 ft | 0 kts | 170° |
| 2026-05-07 10:49 | 53.35899 | -2.26704 | 261 ft | 12 kts | 170° |
| 2026-05-07 10:49 | 53.35804 | -2.26676 | 261 ft | 15 kts | 170° |
| 2026-05-07 10:50 | 53.35695 | -2.26645 | 261 ft | 16 kts | 171° |
| 2026-05-07 10:50 | 53.35573 | -2.26643 | 261 ft | 18 kts | 210° |
| 2026-05-07 10:50 | 53.35478 | -2.26815 | 261 ft | 21 kts | 231° |
| 2026-05-07 10:50 | 53.35386 | -2.27007 | 261 ft | 21 kts | 231° |
| 2026-05-07 10:51 | 53.35289 | -2.27196 | 261 ft | 20 kts | 211° |
| 2026-05-07 10:51 | 53.35154 | -2.27250 | 261 ft | 19 kts | 192° |
| 2026-05-07 10:51 | 53.35026 | -2.27304 | 261 ft | 18 kts | 212° |
| 2026-05-07 10:51 | 53.34940 | -2.27465 | 261 ft | 19 kts | 231° |
| 2026-05-07 10:52 | 53.34831 | -2.27690 | 261 ft | 32 kts | 231° |
| 2026-05-07 10:52 | 53.34557 | -2.28257 | 262 ft | 99 kts | 231° |
| 2026-05-07 10:52 | 53.33982 | -2.29441 | 332 ft | 150 kts | 231° |
| 2026-05-07 10:52 | 53.33304 | -2.30835 | 788 ft | 161 kts | 231° |
| 2026-05-07 10:53 | 53.32599 | -2.32286 | 1457 ft | 162 kts | 231° |
| 2026-05-07 10:53 | 53.31995 | -2.33795 | 2115 ft | 159 kts | 253° |
| 2026-05-07 10:53 | 53.32070 | -2.35651 | 2392 ft | 170 kts | 294° |
| 2026-05-07 10:53 | 53.32623 | -2.37484 | 2690 ft | 184 kts | 298° |
| 2026-05-07 10:54 | 53.33271 | -2.39443 | 2993 ft | 200 kts | 306° |
| 2026-05-07 10:54 | 53.34401 | -2.40924 | 3285 ft | 216 kts | 337° |
| 2026-05-07 10:54 | 53.35885 | -2.41732 | 3559 ft | 236 kts | 345° |
| 2026-05-07 10:54 | 53.37525 | -2.42473 | 3931 ft | 255 kts | 345° |
| 2026-05-07 10:55 | 53.39258 | -2.43326 | 4447 ft | 266 kts | 343° |
| 2026-05-07 10:55 | 53.41030 | -2.44266 | 4860 ft | 268 kts | 343° |
| 2026-05-07 10:55 | 53.42795 | -2.45206 | 4993 ft | 268 kts | 343° |
| 2026-05-07 10:55 | 53.44583 | -2.46160 | 4998 ft | 268 kts | 344° |
| 2026-05-07 10:56 | 53.46424 | -2.46501 | 4984 ft | 267 kts | 10° |
| 2026-05-07 10:56 | 53.48120 | -2.45336 | 4999 ft | 267 kts | 36° |
| 2026-05-07 10:56 | 53.49593 | -2.43420 | 5031 ft | 270 kts | 39° |
| 2026-05-07 10:56 | 53.51064 | -2.41402 | 5502 ft | 277 kts | 39° |
| 2026-05-07 10:57 | 53.52549 | -2.39384 | 6415 ft | 274 kts | 39° |
| 2026-05-07 10:57 | 53.54020 | -2.37407 | 7201 ft | 276 kts | 39° |
| 2026-05-07 10:57 | 53.55520 | -2.35407 | 7933 ft | 279 kts | 38° |
| 2026-05-07 10:57 | 53.57044 | -2.33382 | 8661 ft | 282 kts | 38° |
| 2026-05-07 10:58 | 53.58596 | -2.31318 | 9386 ft | 285 kts | 38° |
| 2026-05-07 10:58 | 53.60139 | -2.29266 | 10086 ft | 288 kts | 38° |
| 2026-05-07 10:58 | 53.61734 | -2.27144 | 10611 ft | 298 kts | 38° |
| 2026-05-07 10:58 | 53.63387 | -2.24939 | 10916 ft | 315 kts | 39° |
| 2026-05-07 10:59 | 53.65131 | -2.22602 | 11304 ft | 328 kts | 38° |
| 2026-05-07 10:59 | 53.66939 | -2.20208 | 11891 ft | 333 kts | 38° |
| 2026-05-07 10:59 | 53.68751 | -2.17803 | 12549 ft | 336 kts | 38° |
| 2026-05-07 10:59 | 53.70585 | -2.15357 | 13185 ft | 339 kts | 38° |
| 2026-05-07 11:00 | 53.72494 | -2.12974 | 13793 ft | 342 kts | 29° |
| 2026-05-07 11:00 | 53.74733 | -2.11719 | 14358 ft | 345 kts | 6° |
| 2026-05-07 11:00 | 53.77086 | -2.12057 | 14934 ft | 347 kts | 343° |
| 2026-05-07 11:00 | 53.79374 | -2.13523 | 15545 ft | 350 kts | 337° |
| 2026-05-07 11:01 | 53.81623 | -2.15137 | 16095 ft | 353 kts | 337° |
| 2026-05-07 11:01 | 53.83926 | -2.16776 | 16650 ft | 356 kts | 338° |
| 2026-05-07 11:01 | 53.86212 | -2.18371 | 17194 ft | 359 kts | 338° |
| 2026-05-07 11:01 | 53.88570 | -2.19995 | 17737 ft | 362 kts | 338° |
| 2026-05-07 11:02 | 53.90916 | -2.21602 | 18258 ft | 365 kts | 338° |
| 2026-05-07 11:02 | 53.93290 | -2.23230 | 18773 ft | 368 kts | 338° |
| 2026-05-07 11:02 | 53.95677 | -2.24868 | 19290 ft | 370 kts | 338° |
| 2026-05-07 11:02 | 53.98058 | -2.26504 | 19782 ft | 373 kts | 338° |
| 2026-05-07 11:03 | 54.00460 | -2.28158 | 20262 ft | 375 kts | 338° |
| 2026-05-07 11:03 | 54.02885 | -2.29829 | 20735 ft | 378 kts | 338° |
| 2026-05-07 11:03 | 54.05331 | -2.31519 | 21203 ft | 381 kts | 338° |
| 2026-05-07 11:03 | 54.07772 | -2.33209 | 21660 ft | 383 kts | 338° |
| 2026-05-07 11:04 | 54.10234 | -2.34916 | 22106 ft | 386 kts | 338° |
| 2026-05-07 11:04 | 54.12791 | -2.36684 | 22558 ft | 389 kts | 338° |
| 2026-05-07 11:04 | 54.15313 | -2.38428 | 22994 ft | 391 kts | 338° |
| 2026-05-07 11:04 | 54.17824 | -2.40165 | 23415 ft | 394 kts | 338° |
| 2026-05-07 11:05 | 54.20370 | -2.41929 | 23825 ft | 397 kts | 338° |
| 2026-05-07 11:05 | 54.22919 | -2.43699 | 24001 ft | 398 kts | 338° |
| 2026-05-07 11:05 | 54.25475 | -2.45478 | 24003 ft | 398 kts | 338° |
| 2026-05-07 11:05 | 54.28053 | -2.47275 | 24008 ft | 398 kts | 338° |
| 2026-05-07 11:06 | 54.30588 | -2.49046 | 24010 ft | 398 kts | 338° |
| 2026-05-07 11:06 | 54.33133 | -2.50826 | 24011 ft | 398 kts | 338° |
| 2026-05-07 11:06 | 54.35691 | -2.52619 | 24012 ft | 398 kts | 338° |
| 2026-05-07 11:06 | 54.38255 | -2.54419 | 24012 ft | 398 kts | 338° |
| 2026-05-07 11:07 | 54.40832 | -2.56230 | 24012 ft | 398 kts | 338° |
| 2026-05-07 11:07 | 54.43365 | -2.58013 | 24012 ft | 398 kts | 338° |
| 2026-05-07 11:07 | 54.45945 | -2.59831 | 24012 ft | 398 kts | 338° |
| 2026-05-07 11:07 | 54.48490 | -2.61627 | 24012 ft | 398 kts | 338° |
| 2026-05-07 11:08 | 54.51029 | -2.63420 | 24012 ft | 398 kts | 338° |
| 2026-05-07 11:08 | 54.53601 | -2.65237 | 24012 ft | 398 kts | 337° |
| 2026-05-07 11:08 | 54.56210 | -2.67095 | 24012 ft | 398 kts | 337° |
| 2026-05-07 11:08 | 54.58769 | -2.68922 | 24012 ft | 398 kts | 337° |
| 2026-05-07 11:09 | 54.61312 | -2.70737 | 24012 ft | 398 kts | 337° |
| 2026-05-07 11:09 | 54.63837 | -2.72537 | 24012 ft | 398 kts | 337° |
| 2026-05-07 11:09 | 54.66389 | -2.74357 | 24012 ft | 398 kts | 337° |
| 2026-05-07 11:09 | 54.68943 | -2.76180 | 24012 ft | 398 kts | 337° |
| 2026-05-07 11:10 | 54.71507 | -2.78012 | 24012 ft | 397 kts | 337° |
| 2026-05-07 11:10 | 54.74048 | -2.79830 | 24012 ft | 397 kts | 337° |
| 2026-05-07 11:10 | 54.76593 | -2.81653 | 24012 ft | 397 kts | 337° |
| 2026-05-07 11:10 | 54.79149 | -2.83486 | 23920 ft | 398 kts | 337° |
| 2026-05-07 11:11 | 54.81673 | -2.85299 | 23668 ft | 395 kts | 337° |
| 2026-05-07 11:11 | 54.84201 | -2.87118 | 23418 ft | 394 kts | 337° |
| 2026-05-07 11:11 | 54.86748 | -2.88952 | 23165 ft | 392 kts | 337° |
| 2026-05-07 11:11 | 54.89251 | -2.90758 | 22916 ft | 391 kts | 337° |
| 2026-05-07 11:12 | 54.91740 | -2.92556 | 22667 ft | 389 kts | 337° |
| 2026-05-07 11:12 | 54.94226 | -2.94354 | 22417 ft | 388 kts | 337° |
| 2026-05-07 11:12 | 54.96692 | -2.96141 | 22169 ft | 386 kts | 337° |
| 2026-05-07 11:12 | 54.99146 | -2.97920 | 21869 ft | 382 kts | 337° |
| 2026-05-07 11:13 | 55.01587 | -2.99693 | 21356 ft | 380 kts | 337° |
| 2026-05-07 11:13 | 55.04013 | -3.01456 | 20821 ft | 378 kts | 337° |
| 2026-05-07 11:13 | 55.06418 | -3.03206 | 20329 ft | 375 kts | 337° |
| 2026-05-07 11:13 | 55.08834 | -3.04968 | 19842 ft | 372 kts | 337° |
| 2026-05-07 11:14 | 55.11218 | -3.06707 | 19360 ft | 370 kts | 337° |
| 2026-05-07 11:14 | 55.13567 | -3.08415 | 18885 ft | 367 kts | 337° |
| 2026-05-07 11:14 | 55.15932 | -3.10138 | 18407 ft | 364 kts | 338° |
| 2026-05-07 11:14 | 55.18335 | -3.11336 | 17919 ft | 362 kts | 354° |
| 2026-05-07 11:15 | 55.20832 | -3.11531 | 17452 ft | 359 kts | 0° |
| 2026-05-07 11:15 | 55.23327 | -3.11502 | 16975 ft | 357 kts | 0° |
| 2026-05-07 11:15 | 55.25782 | -3.11489 | 16458 ft | 357 kts | 0° |
| 2026-05-07 11:15 | 55.28297 | -3.11525 | 15652 ft | 365 kts | 359° |
| 2026-05-07 11:16 | 55.30827 | -3.11605 | 15042 ft | 365 kts | 359° |
| 2026-05-07 11:16 | 55.33351 | -3.11711 | 14574 ft | 362 kts | 359° |
| 2026-05-07 11:16 | 55.35852 | -3.11831 | 14098 ft | 359 kts | 358° |
| 2026-05-07 11:16 | 55.38320 | -3.11957 | 13607 ft | 357 kts | 358° |
| 2026-05-07 11:17 | 55.40772 | -3.12088 | 13114 ft | 354 kts | 358° |
| 2026-05-07 11:17 | 55.43200 | -3.12220 | 12619 ft | 351 kts | 358° |
| 2026-05-07 11:17 | 55.45630 | -3.12354 | 12119 ft | 349 kts | 358° |
| 2026-05-07 11:17 | 55.48031 | -3.12375 | 11754 ft | 342 kts | 5° |
| 2026-05-07 11:18 | 55.50367 | -3.11952 | 11405 ft | 335 kts | 5° |
| 2026-05-07 11:18 | 55.52654 | -3.11647 | 11044 ft | 329 kts | 4° |
| 2026-05-07 11:18 | 55.54942 | -3.11390 | 10395 ft | 333 kts | 4° |
| 2026-05-07 11:18 | 55.57268 | -3.11140 | 9740 ft | 336 kts | 4° |
| 2026-05-07 11:19 | 55.59593 | -3.10891 | 9050 ft | 340 kts | 4° |
| 2026-05-07 11:19 | 55.61948 | -3.10639 | 8295 ft | 340 kts | 4° |
| 2026-05-07 11:19 | 55.64255 | -3.10393 | 7543 ft | 327 kts | 4° |
| 2026-05-07 11:19 | 55.66469 | -3.10157 | 6799 ft | 317 kts | 4° |
| 2026-05-07 11:20 | 55.68601 | -3.09929 | 6271 ft | 301 kts | 3° |
| 2026-05-07 11:20 | 55.70626 | -3.09713 | 6026 ft | 278 kts | 3° |
| 2026-05-07 11:20 | 55.72483 | -3.09515 | 6012 ft | 263 kts | 3° |
| 2026-05-07 11:20 | 55.74290 | -3.09322 | 6008 ft | 257 kts | 3° |
| 2026-05-07 11:21 | 55.76051 | -3.09134 | 6006 ft | 250 kts | 3° |
| 2026-05-07 11:21 | 55.77792 | -3.08948 | 6006 ft | 250 kts | 3° |
| 2026-05-07 11:21 | 55.79516 | -3.08764 | 6006 ft | 250 kts | 3° |
| 2026-05-07 11:21 | 55.81239 | -3.08579 | 5997 ft | 248 kts | 3° |
| 2026-05-07 11:22 | 55.82952 | -3.08396 | 5752 ft | 246 kts | 3° |
| 2026-05-07 11:22 | 55.84650 | -3.08215 | 5386 ft | 247 kts | 3° |
| 2026-05-07 11:22 | 55.86362 | -3.08032 | 5064 ft | 246 kts | 3° |
| 2026-05-07 11:22 | 55.88080 | -3.07849 | 4750 ft | 245 kts | 3° |
| 2026-05-07 11:23 | 55.89761 | -3.07669 | 4439 ft | 244 kts | 3° |
| 2026-05-07 11:23 | 55.91459 | -3.07488 | 4125 ft | 243 kts | 3° |
| 2026-05-07 11:23 | 55.93132 | -3.07309 | 3816 ft | 242 kts | 3° |
| 2026-05-07 11:23 | 55.94793 | -3.07131 | 3550 ft | 238 kts | 3° |
| 2026-05-07 11:24 | 55.96407 | -3.06959 | 3383 ft | 231 kts | 3° |
| 2026-05-07 11:24 | 55.98016 | -3.06787 | 3116 ft | 229 kts | 3° |
| 2026-05-07 11:24 | 55.99591 | -3.06619 | 3019 ft | 228 kts | 3° |
| 2026-05-07 11:24 | 56.01173 | -3.06450 | 3012 ft | 229 kts | 3° |
| 2026-05-07 11:25 | 56.02778 | -3.06279 | 3009 ft | 230 kts | 4° |
| 2026-05-07 11:25 | 56.04367 | -3.06118 | 2999 ft | 230 kts | 354° |
| 2026-05-07 11:25 | 56.05783 | -3.07241 | 2984 ft | 223 kts | 313° |
| 2026-05-07 11:25 | 56.06381 | -3.09652 | 3013 ft | 207 kts | 270° |
| 2026-05-07 11:26 | 56.05912 | -3.11861 | 3029 ft | 188 kts | 230° |
| 2026-05-07 11:26 | 56.05010 | -3.13393 | 3053 ft | 168 kts | 220° |
| 2026-05-07 11:26 | 56.04161 | -3.14626 | 2918 ft | 150 kts | 218° |
| 2026-05-07 11:26 | 56.03355 | -3.15765 | 2742 ft | 147 kts | 218° |
| 2026-05-07 11:27 | 56.02550 | -3.16901 | 2548 ft | 147 kts | 219° |
| 2026-05-07 11:27 | 56.01794 | -3.18118 | 2356 ft | 146 kts | 226° |
| 2026-05-07 11:27 | 56.01136 | -3.19476 | 2169 ft | 146 kts | 232° |
| 2026-05-07 11:27 | 56.00546 | -3.20940 | 1981 ft | 145 kts | 236° |
| 2026-05-07 11:28 | 56.00007 | -3.22451 | 1793 ft | 145 kts | 238° |
| 2026-05-07 11:28 | 55.99482 | -3.23999 | 1602 ft | 144 kts | 239° |
| 2026-05-07 11:28 | 55.98963 | -3.25543 | 1412 ft | 144 kts | 239° |
| 2026-05-07 11:28 | 55.98445 | -3.27079 | 1222 ft | 144 kts | 239° |
| 2026-05-07 11:29 | 55.97931 | -3.28595 | 1034 ft | 143 kts | 239° |
| 2026-05-07 11:29 | 55.97415 | -3.30118 | 844 ft | 143 kts | 239° |
| 2026-05-07 11:29 | 55.96907 | -3.31617 | 658 ft | 142 kts | 239° |
| 2026-05-07 11:29 | 55.96390 | -3.33139 | 468 ft | 142 kts | 239° |
| 2026-05-07 11:30 | 55.95882 | -3.34637 | 280 ft | 141 kts | 239° |
| 2026-05-07 11:30 | 55.95374 | -3.36138 | 104 ft | 139 kts | 238° |
| 2026-05-07 11:30 | 55.94961 | -3.37359 | 101 ft | 74 kts | 240° |
| 2026-05-07 11:30 | 55.94783 | -3.37877 | 104 ft | 41 kts | 239° |
| 2026-05-07 11:31 | 55.94723 | -3.38044 | 104 ft | 9 kts | 213° |
| 2026-05-07 11:31 | 55.94668 | -3.38032 | 104 ft | 8 kts | 151° |
| 2026-05-07 11:31 | 55.94653 | -3.38017 | 105 ft | 0 kts | 150° |
| 2026-05-07 11:32 | 55.94648 | -3.38012 | 105 ft | 2 kts | 150° |
| 2026-05-07 11:33 | 55.94624 | -3.37987 | 106 ft | 5 kts | 150° |
| 2026-05-07 11:33 | 55.94591 | -3.37933 | 107 ft | 7 kts | 110° |
| 2026-05-07 11:33 | 55.94613 | -3.37814 | 106 ft | 13 kts | 59° |
| 2026-05-07 11:33 | 55.94672 | -3.37642 | 104 ft | 16 kts | 59° |
| 2026-05-07 11:34 | 55.94741 | -3.37438 | 102 ft | 21 kts | 59° |
| 2026-05-07 11:34 | 55.94817 | -3.37215 | 103 ft | 20 kts | 59° |
| 2026-05-07 11:34 | 55.94889 | -3.37005 | 103 ft | 19 kts | 59° |
| 2026-05-07 11:34 | 55.94911 | -3.36828 | 102 ft | 10 kts | 139° |
| 2026-05-07 11:35 | 55.94865 | -3.36792 | 103 ft | 0 kts | 175° |
| 2026-05-07 11:35 | 55.94863 | -3.36775 | 103 ft | 3 kts | 58° |
| 2026-05-07 11:35 | 55.94894 | -3.36735 | 103 ft | 9 kts | 52° |
| 2026-05-07 11:36 | 55.94906 | -3.36703 | 103 ft | 2 kts | 57° |
| 2026-05-07 11:36 | 55.94910 | -3.36679 | 104 ft | 2 kts | 103° |
| 2026-05-07 11:36 | 55.94897 | -3.36656 | 104 ft | 3 kts | 149° |
| 2026-05-07 11:36 | 55.94875 | -3.36635 | 104 ft | 2 kts | 152° |
| 2026-05-07 11:37 | 55.94863 | -3.36623 | 104 ft | 0 kts | 149° |